sensor_id;sensor_type;location;lat;lon;timestamp;P1;durP1;ratioP1;P2;durP2;ratioP2
38843;SDS011;24596;48.080;8.362;2022-08-03T00:02:17;6.22;;;3.35;;
38843;SDS011;24596;48.080;8.362;2022-08-03T00:04:42;6.38;;;3.33;;
38843;SDS011;24596;48.080;8.362;2022-08-03T00:07:08;5.60;;;3.08;;
38843;SDS011;24596;48.080;8.362;2022-08-03T00:09:33;7.53;;;3.30;;
38843;SDS011;24596;48.080;8.362;2022-08-03T00:11:58;5.57;;;3.35;;
38843;SDS011;24596;48.080;8.362;2022-08-03T00:14:24;7.40;;;3.13;;
38843;SDS011;24596;48.080;8.362;2022-08-03T00:16:49;6.32;;;3.25;;
38843;SDS011;24596;48.080;8.362;2022-08-03T00:19:14;9.98;;;3.55;;
38843;SDS011;24596;48.080;8.362;2022-08-03T00:21:39;6.10;;;3.45;;
38843;SDS011;24596;48.080;8.362;2022-08-03T00:24:05;6.05;;;3.10;;
38843;SDS011;24596;48.080;8.362;2022-08-03T00:26:33;5.38;;;3.00;;
38843;SDS011;24596;48.080;8.362;2022-08-03T00:29:20;5.93;;;3.38;;
38843;SDS011;24596;48.080;8.362;2022-08-03T00:31:48;5.55;;;3.42;;
38843;SDS011;24596;48.080;8.362;2022-08-03T00:34:16;15.93;;;3.95;;
38843;SDS011;24596;48.080;8.362;2022-08-03T00:36:45;6.50;;;3.45;;
38843;SDS011;24596;48.080;8.362;2022-08-03T00:39:10;7.55;;;3.47;;
38843;SDS011;24596;48.080;8.362;2022-08-03T00:41:36;8.13;;;3.28;;
38843;SDS011;24596;48.080;8.362;2022-08-03T00:44:01;8.98;;;3.65;;
38843;SDS011;24596;48.080;8.362;2022-08-03T00:46:26;5.53;;;3.28;;
38843;SDS011;24596;48.080;8.362;2022-08-03T00:49:12;6.00;;;3.42;;
38843;SDS011;24596;48.080;8.362;2022-08-03T00:51:37;7.50;;;3.58;;
38843;SDS011;24596;48.080;8.362;2022-08-03T00:54:02;6.38;;;3.65;;
38843;SDS011;24596;48.080;8.362;2022-08-03T00:56:28;6.97;;;3.17;;
38843;SDS011;24596;48.080;8.362;2022-08-03T00:58:56;7.22;;;4.00;;
38843;SDS011;24596;48.080;8.362;2022-08-03T01:01:22;6.72;;;3.35;;
38843;SDS011;24596;48.080;8.362;2022-08-03T01:03:47;5.32;;;3.13;;
38843;SDS011;24596;48.080;8.362;2022-08-03T01:14:02;7.00;;;3.20;;
38843;SDS011;24596;48.080;8.362;2022-08-03T01:19:41;8.88;;;3.88;;
38843;SDS011;24596;48.080;8.362;2022-08-03T01:30:22;6.03;;;3.53;;
38843;SDS011;24596;48.080;8.362;2022-08-03T01:32:55;7.63;;;3.25;;
38843;SDS011;24596;48.080;8.362;2022-08-03T01:37:56;10.63;;;3.65;;
38843;SDS011;24596;48.080;8.362;2022-08-03T01:40:23;5.55;;;3.55;;
38843;SDS011;24596;48.080;8.362;2022-08-03T01:42:49;6.13;;;3.38;;
38843;SDS011;24596;48.080;8.362;2022-08-03T01:45:18;8.18;;;4.05;;
38843;SDS011;24596;48.080;8.362;2022-08-03T01:47:45;9.27;;;4.07;;
38843;SDS011;24596;48.080;8.362;2022-08-03T01:50:12;8.38;;;3.65;;
38843;SDS011;24596;48.080;8.362;2022-08-03T01:52:41;9.43;;;3.55;;
38843;SDS011;24596;48.080;8.362;2022-08-03T01:55:07;6.20;;;3.25;;
38843;SDS011;24596;48.080;8.362;2022-08-03T01:57:34;6.35;;;3.58;;
38843;SDS011;24596;48.080;8.362;2022-08-03T01:59:59;10.15;;;3.35;;
38843;SDS011;24596;48.080;8.362;2022-08-03T02:02:25;8.00;;;3.65;;
38843;SDS011;24596;48.080;8.362;2022-08-03T02:04:51;5.75;;;3.55;;
38843;SDS011;24596;48.080;8.362;2022-08-03T02:07:18;6.40;;;3.72;;
38843;SDS011;24596;48.080;8.362;2022-08-03T02:09:44;7.28;;;3.50;;
38843;SDS011;24596;48.080;8.362;2022-08-03T02:12:11;7.57;;;3.40;;
38843;SDS011;24596;48.080;8.362;2022-08-03T02:14:38;6.82;;;3.50;;
38843;SDS011;24596;48.080;8.362;2022-08-03T02:17:05;5.93;;;3.15;;
38843;SDS011;24596;48.080;8.362;2022-08-03T02:19:31;7.13;;;3.33;;
38843;SDS011;24596;48.080;8.362;2022-08-03T02:21:57;6.82;;;3.75;;
38843;SDS011;24596;48.080;8.362;2022-08-03T02:24:22;6.28;;;3.50;;
38843;SDS011;24596;48.080;8.362;2022-08-03T02:26:48;7.00;;;3.67;;
38843;SDS011;24596;48.080;8.362;2022-08-03T02:29:17;6.57;;;3.50;;
38843;SDS011;24596;48.080;8.362;2022-08-03T02:31:46;5.90;;;3.20;;
38843;SDS011;24596;48.080;8.362;2022-08-03T02:34:13;6.78;;;3.53;;
38843;SDS011;24596;48.080;8.362;2022-08-03T02:36:40;5.90;;;2.97;;
38843;SDS011;24596;48.080;8.362;2022-08-03T02:39:06;5.38;;;3.17;;
38843;SDS011;24596;48.080;8.362;2022-08-03T02:41:34;5.68;;;3.00;;
38843;SDS011;24596;48.080;8.362;2022-08-03T02:44:01;7.72;;;3.65;;
38843;SDS011;24596;48.080;8.362;2022-08-03T02:46:29;6.07;;;3.70;;
38843;SDS011;24596;48.080;8.362;2022-08-03T02:48:56;7.55;;;3.88;;
38843;SDS011;24596;48.080;8.362;2022-08-03T02:51:23;5.38;;;3.03;;
38843;SDS011;24596;48.080;8.362;2022-08-03T02:53:48;7.80;;;3.92;;
38843;SDS011;24596;48.080;8.362;2022-08-03T02:56:14;9.25;;;3.63;;
38843;SDS011;24596;48.080;8.362;2022-08-03T02:58:41;8.35;;;3.78;;
38843;SDS011;24596;48.080;8.362;2022-08-03T03:01:07;7.80;;;3.45;;
38843;SDS011;24596;48.080;8.362;2022-08-03T03:03:33;6.70;;;3.83;;
38843;SDS011;24596;48.080;8.362;2022-08-03T03:05:58;7.25;;;2.95;;
38843;SDS011;24596;48.080;8.362;2022-08-03T03:08:24;6.32;;;3.58;;
38843;SDS011;24596;48.080;8.362;2022-08-03T03:10:51;7.22;;;3.45;;
38843;SDS011;24596;48.080;8.362;2022-08-03T03:13:16;6.05;;;3.40;;
38843;SDS011;24596;48.080;8.362;2022-08-03T03:15:43;6.10;;;3.22;;
38843;SDS011;24596;48.080;8.362;2022-08-03T03:18:09;5.85;;;3.25;;
38843;SDS011;24596;48.080;8.362;2022-08-03T03:20:35;10.07;;;3.10;;
38843;SDS011;24596;48.080;8.362;2022-08-03T03:23:01;7.15;;;3.60;;
38843;SDS011;24596;48.080;8.362;2022-08-03T03:25:30;6.60;;;3.95;;
38843;SDS011;24596;48.080;8.362;2022-08-03T03:27:57;6.57;;;3.55;;
38843;SDS011;24596;48.080;8.362;2022-08-03T03:30:23;5.25;;;2.88;;
38843;SDS011;24596;48.080;8.362;2022-08-03T03:32:48;7.35;;;3.50;;
38843;SDS011;24596;48.080;8.362;2022-08-03T03:35:13;7.72;;;3.58;;
38843;SDS011;24596;48.080;8.362;2022-08-03T03:37:40;7.13;;;3.30;;
38843;SDS011;24596;48.080;8.362;2022-08-03T03:40:05;9.20;;;3.80;;
38843;SDS011;24596;48.080;8.362;2022-08-03T03:42:33;6.18;;;3.20;;
38843;SDS011;24596;48.080;8.362;2022-08-03T03:44:58;7.00;;;3.70;;
38843;SDS011;24596;48.080;8.362;2022-08-03T03:47:27;5.97;;;3.25;;
38843;SDS011;24596;48.080;8.362;2022-08-03T03:49:52;5.10;;;2.88;;
38843;SDS011;24596;48.080;8.362;2022-08-03T03:52:17;6.55;;;3.75;;
38843;SDS011;24596;48.080;8.362;2022-08-03T03:54:43;6.10;;;3.22;;
38843;SDS011;24596;48.080;8.362;2022-08-03T03:57:09;8.20;;;3.85;;
38843;SDS011;24596;48.080;8.362;2022-08-03T03:59:38;5.93;;;3.42;;
38843;SDS011;24596;48.080;8.362;2022-08-03T04:02:05;6.47;;;3.65;;
38843;SDS011;24596;48.080;8.362;2022-08-03T04:04:30;6.78;;;3.35;;
38843;SDS011;24596;48.080;8.362;2022-08-03T04:07:15;5.78;;;3.38;;
38843;SDS011;24596;48.080;8.362;2022-08-03T04:09:59;6.43;;;3.50;;
38843;SDS011;24596;48.080;8.362;2022-08-03T04:12:43;8.00;;;4.07;;
38843;SDS011;24596;48.080;8.362;2022-08-03T04:15:09;5.82;;;3.22;;
38843;SDS011;24596;48.080;8.362;2022-08-03T04:17:35;8.10;;;3.30;;
38843;SDS011;24596;48.080;8.362;2022-08-03T04:20:01;5.35;;;2.90;;
38843;SDS011;24596;48.080;8.362;2022-08-03T04:22:28;7.45;;;3.13;;
38843;SDS011;24596;48.080;8.362;2022-08-03T04:25:00;8.15;;;4.00;;
38843;SDS011;24596;48.080;8.362;2022-08-03T04:27:27;8.18;;;3.35;;
38843;SDS011;24596;48.080;8.362;2022-08-03T04:29:55;9.68;;;3.55;;
38843;SDS011;24596;48.080;8.362;2022-08-03T04:32:24;11.10;;;3.50;;
38843;SDS011;24596;48.080;8.362;2022-08-03T04:34:52;5.80;;;3.00;;
38843;SDS011;24596;48.080;8.362;2022-08-03T04:37:19;7.45;;;3.58;;
38843;SDS011;24596;48.080;8.362;2022-08-03T04:39:45;7.78;;;3.42;;
38843;SDS011;24596;48.080;8.362;2022-08-03T04:42:12;6.30;;;3.45;;
38843;SDS011;24596;48.080;8.362;2022-08-03T04:44:39;7.45;;;3.55;;
38843;SDS011;24596;48.080;8.362;2022-08-03T04:47:05;5.63;;;3.00;;
38843;SDS011;24596;48.080;8.362;2022-08-03T04:49:31;7.82;;;2.90;;
38843;SDS011;24596;48.080;8.362;2022-08-03T04:51:56;8.18;;;3.60;;
38843;SDS011;24596;48.080;8.362;2022-08-03T04:54:21;6.65;;;3.67;;
38843;SDS011;24596;48.080;8.362;2022-08-03T04:56:46;6.68;;;3.65;;
38843;SDS011;24596;48.080;8.362;2022-08-03T04:59:12;8.93;;;3.10;;
38843;SDS011;24596;48.080;8.362;2022-08-03T05:01:38;8.07;;;3.60;;
38843;SDS011;24596;48.080;8.362;2022-08-03T05:04:03;7.22;;;3.75;;
38843;SDS011;24596;48.080;8.362;2022-08-03T05:06:28;6.90;;;3.55;;
38843;SDS011;24596;48.080;8.362;2022-08-03T05:08:56;7.90;;;3.78;;
38843;SDS011;24596;48.080;8.362;2022-08-03T05:11:22;8.75;;;3.65;;
38843;SDS011;24596;48.080;8.362;2022-08-03T05:13:47;7.22;;;3.78;;
38843;SDS011;24596;48.080;8.362;2022-08-03T05:16:12;7.70;;;3.50;;
38843;SDS011;24596;48.080;8.362;2022-08-03T05:18:38;6.00;;;3.45;;
38843;SDS011;24596;48.080;8.362;2022-08-03T05:21:12;6.68;;;4.00;;
38843;SDS011;24596;48.080;8.362;2022-08-03T05:23:38;8.63;;;3.45;;
38843;SDS011;24596;48.080;8.362;2022-08-03T05:26:03;6.78;;;3.58;;
38843;SDS011;24596;48.080;8.362;2022-08-03T05:28:29;7.88;;;3.70;;
38843;SDS011;24596;48.080;8.362;2022-08-03T05:30:54;7.53;;;3.53;;
38843;SDS011;24596;48.080;8.362;2022-08-03T05:33:19;7.70;;;2.95;;
38843;SDS011;24596;48.080;8.362;2022-08-03T05:35:44;6.25;;;3.13;;
38843;SDS011;24596;48.080;8.362;2022-08-03T05:38:10;6.47;;;3.13;;
38843;SDS011;24596;48.080;8.362;2022-08-03T05:40:35;5.57;;;3.00;;
38843;SDS011;24596;48.080;8.362;2022-08-03T05:43:00;5.07;;;2.75;;
38843;SDS011;24596;48.080;8.362;2022-08-03T05:45:26;6.10;;;3.17;;
38843;SDS011;24596;48.080;8.362;2022-08-03T05:47:51;7.63;;;3.40;;
38843;SDS011;24596;48.080;8.362;2022-08-03T05:50:19;6.53;;;3.70;;
38843;SDS011;24596;48.080;8.362;2022-08-03T05:55:40;5.57;;;2.95;;
38843;SDS011;24596;48.080;8.362;2022-08-03T06:00:54;5.75;;;2.92;;
38843;SDS011;24596;48.080;8.362;2022-08-03T06:03:19;5.47;;;2.72;;
38843;SDS011;24596;48.080;8.362;2022-08-03T06:05:45;5.97;;;2.90;;
38843;SDS011;24596;48.080;8.362;2022-08-03T06:08:10;6.65;;;3.30;;
38843;SDS011;24596;48.080;8.362;2022-08-03T06:10:35;5.28;;;2.92;;
38843;SDS011;24596;48.080;8.362;2022-08-03T06:13:00;4.38;;;2.45;;
38843;SDS011;24596;48.080;8.362;2022-08-03T06:15:26;4.80;;;2.58;;
38843;SDS011;24596;48.080;8.362;2022-08-03T06:17:51;6.20;;;2.53;;
38843;SDS011;24596;48.080;8.362;2022-08-03T06:20:17;5.60;;;2.90;;
38843;SDS011;24596;48.080;8.362;2022-08-03T06:22:43;4.82;;;2.55;;
38843;SDS011;24596;48.080;8.362;2022-08-03T06:25:08;4.22;;;2.17;;
38843;SDS011;24596;48.080;8.362;2022-08-03T06:27:33;5.18;;;2.72;;
38843;SDS011;24596;48.080;8.362;2022-08-03T06:29:59;4.13;;;2.10;;
38843;SDS011;24596;48.080;8.362;2022-08-03T06:32:24;4.30;;;2.00;;
38843;SDS011;24596;48.080;8.362;2022-08-03T06:34:49;5.13;;;2.15;;
38843;SDS011;24596;48.080;8.362;2022-08-03T06:37:15;4.55;;;2.10;;
38843;SDS011;24596;48.080;8.362;2022-08-03T06:39:40;4.90;;;2.13;;
38843;SDS011;24596;48.080;8.362;2022-08-03T06:42:05;4.35;;;1.73;;
38843;SDS011;24596;48.080;8.362;2022-08-03T06:44:31;4.95;;;2.13;;
38843;SDS011;24596;48.080;8.362;2022-08-03T06:46:56;4.85;;;1.75;;
38843;SDS011;24596;48.080;8.362;2022-08-03T06:49:22;3.67;;;1.75;;
38843;SDS011;24596;48.080;8.362;2022-08-03T06:51:47;5.05;;;1.80;;
38843;SDS011;24596;48.080;8.362;2022-08-03T06:54:14;3.67;;;1.60;;
38843;SDS011;24596;48.080;8.362;2022-08-03T06:56:40;3.38;;;1.33;;
38843;SDS011;24596;48.080;8.362;2022-08-03T06:59:05;2.25;;;1.27;;
38843;SDS011;24596;48.080;8.362;2022-08-03T07:01:30;3.33;;;1.65;;
38843;SDS011;24596;48.080;8.362;2022-08-03T07:03:55;2.63;;;1.23;;
38843;SDS011;24596;48.080;8.362;2022-08-03T07:06:21;2.45;;;1.17;;
38843;SDS011;24596;48.080;8.362;2022-08-03T07:08:46;3.25;;;1.38;;
38843;SDS011;24596;48.080;8.362;2022-08-03T07:11:11;4.18;;;1.50;;
38843;SDS011;24596;48.080;8.362;2022-08-03T07:13:36;5.47;;;1.45;;
38843;SDS011;24596;48.080;8.362;2022-08-03T07:16:02;3.55;;;1.60;;
38843;SDS011;24596;48.080;8.362;2022-08-03T07:18:27;2.40;;;1.30;;
38843;SDS011;24596;48.080;8.362;2022-08-03T07:20:52;4.78;;;1.35;;
38843;SDS011;24596;48.080;8.362;2022-08-03T07:23:17;4.07;;;1.73;;
38843;SDS011;24596;48.080;8.362;2022-08-03T07:25:43;3.47;;;1.45;;
38843;SDS011;24596;48.080;8.362;2022-08-03T07:28:08;2.78;;;1.38;;
38843;SDS011;24596;48.080;8.362;2022-08-03T07:30:33;2.50;;;1.30;;
38843;SDS011;24596;48.080;8.362;2022-08-03T07:32:59;3.67;;;1.58;;
38843;SDS011;24596;48.080;8.362;2022-08-03T07:35:25;3.55;;;1.40;;
38843;SDS011;24596;48.080;8.362;2022-08-03T07:37:50;3.27;;;1.67;;
38843;SDS011;24596;48.080;8.362;2022-08-03T07:40:15;2.75;;;1.45;;
38843;SDS011;24596;48.080;8.362;2022-08-03T07:42:41;6.13;;;1.63;;
38843;SDS011;24596;48.080;8.362;2022-08-03T07:45:07;2.63;;;1.20;;
38843;SDS011;24596;48.080;8.362;2022-08-03T07:47:32;3.70;;;1.40;;
38843;SDS011;24596;48.080;8.362;2022-08-03T07:49:58;3.28;;;1.60;;
38843;SDS011;24596;48.080;8.362;2022-08-03T07:52:24;3.85;;;1.50;;
38843;SDS011;24596;48.080;8.362;2022-08-03T07:55:08;3.42;;;1.42;;
38843;SDS011;24596;48.080;8.362;2022-08-03T07:57:34;2.53;;;1.27;;
38843;SDS011;24596;48.080;8.362;2022-08-03T07:59:59;2.70;;;1.30;;
38843;SDS011;24596;48.080;8.362;2022-08-03T08:02:24;3.53;;;1.60;;
38843;SDS011;24596;48.080;8.362;2022-08-03T08:04:49;2.90;;;1.20;;
38843;SDS011;24596;48.080;8.362;2022-08-03T08:07:15;3.30;;;1.63;;
38843;SDS011;24596;48.080;8.362;2022-08-03T08:09:40;4.53;;;1.42;;
38843;SDS011;24596;48.080;8.362;2022-08-03T08:12:06;3.92;;;1.55;;
38843;SDS011;24596;48.080;8.362;2022-08-03T08:14:32;2.63;;;1.40;;
38843;SDS011;24596;48.080;8.362;2022-08-03T08:16:57;3.22;;;1.30;;
38843;SDS011;24596;48.080;8.362;2022-08-03T08:19:22;2.67;;;1.07;;
38843;SDS011;24596;48.080;8.362;2022-08-03T08:21:48;2.55;;;1.17;;
38843;SDS011;24596;48.080;8.362;2022-08-03T08:24:13;2.88;;;1.20;;
38843;SDS011;24596;48.080;8.362;2022-08-03T08:26:39;4.72;;;1.65;;
38843;SDS011;24596;48.080;8.362;2022-08-03T08:29:04;5.37;;;1.57;;
38843;SDS011;24596;48.080;8.362;2022-08-03T08:31:32;2.85;;;1.30;;
38843;SDS011;24596;48.080;8.362;2022-08-03T08:33:58;4.13;;;1.50;;
38843;SDS011;24596;48.080;8.362;2022-08-03T08:36:23;2.63;;;1.10;;
38843;SDS011;24596;48.080;8.362;2022-08-03T08:38:49;6.68;;;1.55;;
38843;SDS011;24596;48.080;8.362;2022-08-03T08:41:14;2.55;;;1.30;;
38843;SDS011;24596;48.080;8.362;2022-08-03T08:43:40;3.25;;;1.52;;
38843;SDS011;24596;48.080;8.362;2022-08-03T08:46:06;3.15;;;1.10;;
38843;SDS011;24596;48.080;8.362;2022-08-03T08:48:34;5.40;;;1.70;;
38843;SDS011;24596;48.080;8.362;2022-08-03T08:51:00;3.17;;;1.20;;
38843;SDS011;24596;48.080;8.362;2022-08-03T08:53:27;2.80;;;1.40;;
38843;SDS011;24596;48.080;8.362;2022-08-03T08:55:53;4.03;;;1.60;;
38843;SDS011;24596;48.080;8.362;2022-08-03T08:58:20;3.65;;;1.48;;
38843;SDS011;24596;48.080;8.362;2022-08-03T09:00:46;3.65;;;1.83;;
38843;SDS011;24596;48.080;8.362;2022-08-03T09:03:12;2.83;;;1.33;;
38843;SDS011;24596;48.080;8.362;2022-08-03T09:05:47;4.05;;;1.77;;
38843;SDS011;24596;48.080;8.362;2022-08-03T09:08:21;4.80;;;1.80;;
38843;SDS011;24596;48.080;8.362;2022-08-03T09:10:47;3.80;;;1.70;;
38843;SDS011;24596;48.080;8.362;2022-08-03T09:13:13;4.30;;;2.05;;
38843;SDS011;24596;48.080;8.362;2022-08-03T09:15:38;6.10;;;2.08;;
38843;SDS011;24596;48.080;8.362;2022-08-03T09:18:03;6.68;;;2.08;;
38843;SDS011;24596;48.080;8.362;2022-08-03T09:20:29;4.35;;;2.00;;
38843;SDS011;24596;48.080;8.362;2022-08-03T09:23:03;3.05;;;1.52;;
38843;SDS011;24596;48.080;8.362;2022-08-03T09:27:54;4.70;;;2.10;;
38843;SDS011;24596;48.080;8.362;2022-08-03T09:30:19;3.28;;;1.75;;
38843;SDS011;24596;48.080;8.362;2022-08-03T09:32:44;4.07;;;1.52;;
38843;SDS011;24596;48.080;8.362;2022-08-03T09:35:11;4.07;;;1.77;;
38843;SDS011;24596;48.080;8.362;2022-08-03T09:37:37;5.57;;;1.80;;
38843;SDS011;24596;48.080;8.362;2022-08-03T09:40:03;3.63;;;1.58;;
38843;SDS011;24596;48.080;8.362;2022-08-03T09:42:28;5.93;;;2.00;;
38843;SDS011;24596;48.080;8.362;2022-08-03T09:44:54;3.88;;;1.77;;
38843;SDS011;24596;48.080;8.362;2022-08-03T09:47:29;3.95;;;1.65;;
38843;SDS011;24596;48.080;8.362;2022-08-03T09:49:58;3.40;;;1.52;;
38843;SDS011;24596;48.080;8.362;2022-08-03T09:52:29;3.85;;;1.85;;
38843;SDS011;24596;48.080;8.362;2022-08-03T09:54:55;3.38;;;1.50;;
38843;SDS011;24596;48.080;8.362;2022-08-03T09:57:23;4.90;;;1.70;;
38843;SDS011;24596;48.080;8.362;2022-08-03T09:59:49;4.50;;;2.25;;
38843;SDS011;24596;48.080;8.362;2022-08-03T10:02:22;4.20;;;1.77;;
38843;SDS011;24596;48.080;8.362;2022-08-03T10:04:48;2.97;;;1.85;;
38843;SDS011;24596;48.080;8.362;2022-08-03T10:07:16;4.13;;;1.55;;
38843;SDS011;24596;48.080;8.362;2022-08-03T10:09:58;2.83;;;1.60;;
38843;SDS011;24596;48.080;8.362;2022-08-03T10:12:24;3.22;;;1.50;;
38843;SDS011;24596;48.080;8.362;2022-08-03T10:14:50;3.00;;;1.40;;
38843;SDS011;24596;48.080;8.362;2022-08-03T10:17:16;6.00;;;1.50;;
38843;SDS011;24596;48.080;8.362;2022-08-03T10:19:41;3.28;;;1.55;;
38843;SDS011;24596;48.080;8.362;2022-08-03T10:22:09;5.22;;;1.75;;
38843;SDS011;24596;48.080;8.362;2022-08-03T10:24:36;6.47;;;1.73;;
38843;SDS011;24596;48.080;8.362;2022-08-03T10:27:03;3.47;;;1.42;;
38843;SDS011;24596;48.080;8.362;2022-08-03T10:29:31;3.22;;;1.45;;
38843;SDS011;24596;48.080;8.362;2022-08-03T10:31:58;5.28;;;1.83;;
38843;SDS011;24596;48.080;8.362;2022-08-03T10:34:26;3.42;;;1.58;;
38843;SDS011;24596;48.080;8.362;2022-08-03T10:36:54;2.55;;;1.52;;
38843;SDS011;24596;48.080;8.362;2022-08-03T10:39:21;3.55;;;1.35;;
38843;SDS011;24596;48.080;8.362;2022-08-03T10:41:48;2.70;;;1.52;;
38843;SDS011;24596;48.080;8.362;2022-08-03T10:44:17;2.88;;;1.17;;
38843;SDS011;24596;48.080;8.362;2022-08-03T10:46:43;3.53;;;1.42;;
38843;SDS011;24596;48.080;8.362;2022-08-03T10:49:11;3.70;;;1.55;;
38843;SDS011;24596;48.080;8.362;2022-08-03T10:51:36;3.03;;;1.50;;
38843;SDS011;24596;48.080;8.362;2022-08-03T10:54:02;3.47;;;1.40;;
38843;SDS011;24596;48.080;8.362;2022-08-03T10:59:15;3.88;;;1.63;;
38843;SDS011;24596;48.080;8.362;2022-08-03T11:04:16;3.47;;;1.63;;
38843;SDS011;24596;48.080;8.362;2022-08-03T11:06:42;4.05;;;1.48;;
38843;SDS011;24596;48.080;8.362;2022-08-03T11:11:33;5.00;;;1.67;;
38843;SDS011;24596;48.080;8.362;2022-08-03T11:16:24;4.05;;;1.63;;
38843;SDS011;24596;48.080;8.362;2022-08-03T11:18:57;5.70;;;1.52;;
38843;SDS011;24596;48.080;8.362;2022-08-03T11:24:06;3.60;;;1.50;;
38843;SDS011;24596;48.080;8.362;2022-08-03T11:26:32;2.50;;;1.30;;
38843;SDS011;24596;48.080;8.362;2022-08-03T11:29:25;3.70;;;1.67;;
38843;SDS011;24596;48.080;8.362;2022-08-03T11:31:43;4.10;;;1.42;;
38843;SDS011;24596;48.080;8.362;2022-08-03T11:34:10;3.50;;;1.50;;
38843;SDS011;24596;48.080;8.362;2022-08-03T11:39:20;4.13;;;1.55;;
38843;SDS011;24596;48.080;8.362;2022-08-03T11:41:46;3.70;;;1.60;;
38843;SDS011;24596;48.080;8.362;2022-08-03T11:44:38;4.55;;;1.50;;
38843;SDS011;24596;48.080;8.362;2022-08-03T11:46:56;4.80;;;1.58;;
38843;SDS011;24596;48.080;8.362;2022-08-03T11:49:23;3.03;;;1.63;;
38843;SDS011;24596;48.080;8.362;2022-08-03T11:51:52;4.00;;;1.33;;
38843;SDS011;24596;48.080;8.362;2022-08-03T11:54:18;2.72;;;1.42;;
38843;SDS011;24596;48.080;8.362;2022-08-03T11:59:09;3.20;;;1.30;;
38843;SDS011;24596;48.080;8.362;2022-08-03T12:01:34;7.28;;;1.48;;
38843;SDS011;24596;48.080;8.362;2022-08-03T12:04:03;4.22;;;1.40;;
38843;SDS011;24596;48.080;8.362;2022-08-03T12:06:28;2.65;;;1.40;;
38843;SDS011;24596;48.080;8.362;2022-08-03T12:08:54;3.88;;;1.58;;
38843;SDS011;24596;48.080;8.362;2022-08-03T12:11:19;3.33;;;1.60;;
38843;SDS011;24596;48.080;8.362;2022-08-03T12:13:45;3.55;;;1.45;;
38843;SDS011;24596;48.080;8.362;2022-08-03T12:16:21;4.10;;;1.63;;
38843;SDS011;24596;48.080;8.362;2022-08-03T12:19:00;2.20;;;1.13;;
38843;SDS011;24596;48.080;8.362;2022-08-03T12:21:29;3.85;;;1.50;;
38843;SDS011;24596;48.080;8.362;2022-08-03T12:24:01;2.45;;;1.40;;
38843;SDS011;24596;48.080;8.362;2022-08-03T12:26:27;3.80;;;1.35;;
38843;SDS011;24596;48.080;8.362;2022-08-03T12:28:53;4.32;;;1.50;;
38843;SDS011;24596;48.080;8.362;2022-08-03T12:31:18;2.63;;;1.55;;
38843;SDS011;24596;48.080;8.362;2022-08-03T12:33:54;4.93;;;1.50;;
38843;SDS011;24596;48.080;8.362;2022-08-03T12:36:19;2.95;;;1.30;;
38843;SDS011;24596;48.080;8.362;2022-08-03T12:38:52;2.75;;;1.38;;
38843;SDS011;24596;48.080;8.362;2022-08-03T12:41:25;4.95;;;1.52;;
38843;SDS011;24596;48.080;8.362;2022-08-03T12:43:54;3.63;;;1.70;;
38843;SDS011;24596;48.080;8.362;2022-08-03T12:46:19;2.63;;;1.27;;
38843;SDS011;24596;48.080;8.362;2022-08-03T12:51:26;4.10;;;1.60;;
38843;SDS011;24596;48.080;8.362;2022-08-03T12:53:52;4.00;;;1.55;;
38843;SDS011;24596;48.080;8.362;2022-08-03T12:56:17;4.28;;;1.45;;
38843;SDS011;24596;48.080;8.362;2022-08-03T12:58:44;4.45;;;1.45;;
38843;SDS011;24596;48.080;8.362;2022-08-03T13:01:09;2.28;;;1.23;;
38843;SDS011;24596;48.080;8.362;2022-08-03T13:03:42;2.90;;;1.40;;
38843;SDS011;24596;48.080;8.362;2022-08-03T13:06:14;2.92;;;1.45;;
38843;SDS011;24596;48.080;8.362;2022-08-03T13:08:39;2.30;;;1.27;;
38843;SDS011;24596;48.080;8.362;2022-08-03T13:11:24;2.63;;;1.40;;
38843;SDS011;24596;48.080;8.362;2022-08-03T13:13:51;3.03;;;1.42;;
38843;SDS011;24596;48.080;8.362;2022-08-03T13:16:16;2.28;;;1.30;;
38843;SDS011;24596;48.080;8.362;2022-08-03T13:18:42;2.45;;;1.10;;
38843;SDS011;24596;48.080;8.362;2022-08-03T13:21:10;3.55;;;1.50;;
38843;SDS011;24596;48.080;8.362;2022-08-03T13:23:36;4.95;;;1.70;;
38843;SDS011;24596;48.080;8.362;2022-08-03T13:26:01;4.45;;;1.58;;
38843;SDS011;24596;48.080;8.362;2022-08-03T13:28:26;2.97;;;1.50;;
38843;SDS011;24596;48.080;8.362;2022-08-03T13:30:51;3.13;;;1.50;;
38843;SDS011;24596;48.080;8.362;2022-08-03T13:33:18;4.13;;;1.38;;
38843;SDS011;24596;48.080;8.362;2022-08-03T13:35:44;7.07;;;1.40;;
38843;SDS011;24596;48.080;8.362;2022-08-03T13:38:09;4.95;;;1.70;;
38843;SDS011;24596;48.080;8.362;2022-08-03T13:40:34;2.47;;;1.23;;
38843;SDS011;24596;48.080;8.362;2022-08-03T13:43:00;3.13;;;1.40;;
38843;SDS011;24596;48.080;8.362;2022-08-03T13:45:25;2.80;;;1.30;;
38843;SDS011;24596;48.080;8.362;2022-08-03T13:47:52;3.83;;;1.48;;
38843;SDS011;24596;48.080;8.362;2022-08-03T13:50:17;2.10;;;1.35;;
38843;SDS011;24596;48.080;8.362;2022-08-03T13:52:43;4.70;;;1.52;;
38843;SDS011;24596;48.080;8.362;2022-08-03T13:55:13;5.10;;;1.60;;
38843;SDS011;24596;48.080;8.362;2022-08-03T13:57:41;3.40;;;1.15;;
38843;SDS011;24596;48.080;8.362;2022-08-03T14:00:07;2.78;;;1.40;;
38843;SDS011;24596;48.080;8.362;2022-08-03T14:02:33;2.90;;;1.58;;
38843;SDS011;24596;48.080;8.362;2022-08-03T14:04:58;4.47;;;1.42;;
38843;SDS011;24596;48.080;8.362;2022-08-03T14:07:23;3.72;;;1.35;;
38843;SDS011;24596;48.080;8.362;2022-08-03T14:09:49;3.10;;;1.60;;
38843;SDS011;24596;48.080;8.362;2022-08-03T14:12:17;2.85;;;1.40;;
38843;SDS011;24596;48.080;8.362;2022-08-03T14:14:42;3.35;;;1.67;;
38843;SDS011;24596;48.080;8.362;2022-08-03T14:17:08;3.58;;;1.60;;
38843;SDS011;24596;48.080;8.362;2022-08-03T14:19:33;5.65;;;1.75;;
38843;SDS011;24596;48.080;8.362;2022-08-03T14:21:58;4.00;;;1.50;;
38843;SDS011;24596;48.080;8.362;2022-08-03T14:24:24;4.50;;;1.58;;
38843;SDS011;24596;48.080;8.362;2022-08-03T14:26:49;3.13;;;1.50;;
38843;SDS011;24596;48.080;8.362;2022-08-03T14:29:14;3.37;;;1.40;;
38843;SDS011;24596;48.080;8.362;2022-08-03T14:31:40;3.47;;;1.50;;
38843;SDS011;24596;48.080;8.362;2022-08-03T14:34:05;3.17;;;1.50;;
38843;SDS011;24596;48.080;8.362;2022-08-03T14:36:31;3.35;;;1.40;;
38843;SDS011;24596;48.080;8.362;2022-08-03T14:38:56;2.78;;;1.50;;
38843;SDS011;24596;48.080;8.362;2022-08-03T14:41:22;3.80;;;1.30;;
38843;SDS011;24596;48.080;8.362;2022-08-03T14:43:50;4.75;;;1.33;;
38843;SDS011;24596;48.080;8.362;2022-08-03T14:46:15;3.08;;;1.38;;
38843;SDS011;24596;48.080;8.362;2022-08-03T14:48:40;2.92;;;1.45;;
38843;SDS011;24596;48.080;8.362;2022-08-03T14:51:17;3.38;;;1.52;;
38843;SDS011;24596;48.080;8.362;2022-08-03T14:53:53;3.33;;;1.50;;
38843;SDS011;24596;48.080;8.362;2022-08-03T14:56:19;3.03;;;1.50;;
38843;SDS011;24596;48.080;8.362;2022-08-03T14:58:44;2.78;;;1.40;;
38843;SDS011;24596;48.080;8.362;2022-08-03T15:01:09;4.90;;;1.80;;
38843;SDS011;24596;48.080;8.362;2022-08-03T15:03:43;2.10;;;1.40;;
38843;SDS011;24596;48.080;8.362;2022-08-03T15:06:11;2.53;;;1.50;;
38843;SDS011;24596;48.080;8.362;2022-08-03T15:08:36;2.33;;;1.40;;
38843;SDS011;24596;48.080;8.362;2022-08-03T15:11:01;3.00;;;1.40;;
38843;SDS011;24596;48.080;8.362;2022-08-03T15:13:27;6.30;;;1.60;;
38843;SDS011;24596;48.080;8.362;2022-08-03T15:15:55;6.38;;;2.03;;
38843;SDS011;24596;48.080;8.362;2022-08-03T15:18:21;3.97;;;1.65;;
38843;SDS011;24596;48.080;8.362;2022-08-03T15:20:47;5.10;;;1.95;;
38843;SDS011;24596;48.080;8.362;2022-08-03T15:23:14;4.68;;;1.60;;
38843;SDS011;24596;48.080;8.362;2022-08-03T15:25:40;3.60;;;1.50;;
38843;SDS011;24596;48.080;8.362;2022-08-03T15:28:06;4.45;;;1.80;;
38843;SDS011;24596;48.080;8.362;2022-08-03T15:30:31;3.13;;;1.70;;
38843;SDS011;24596;48.080;8.362;2022-08-03T15:33:00;3.88;;;1.80;;
38843;SDS011;24596;48.080;8.362;2022-08-03T15:35:25;4.40;;;1.63;;
38843;SDS011;24596;48.080;8.362;2022-08-03T15:37:52;3.30;;;1.75;;